Time;durP1;ratioP1;P1;durP2;ratioP2;P2;SDS_P1;SDS_P2;PMS_P1;PMS_P2;Temp;Humidity;BMP_temperature;BMP_pressure;BME280_temperature;BME280_humidity;BME280_pressure;Samples;Min_cycle;Max_cycle;Signal;HPM_P1;HPM_P2
2024/03/30 00:00:40;;;;;;;;;;;;;;;;;;5092979;28;19912;-66
2024/03/30 00:03:05;;;;;;;;;;;;;;;;;;5093408;28;20356;-65
2024/03/30 00:05:30;;;;;;;;;;;;;;;;;;5109813;28;19908;-65
2024/03/30 00:07:55;;;;;;;;;;;;;;;;;;5100197;28;19908;-65
2024/03/30 00:10:20;;;;;;;;;;;;;;;;;;5099768;28;19912;-66
2024/03/30 00:12:48;;;;;;;;;;;;;;;;;;5098041;28;19915;-65
2024/03/30 00:15:13;;;;;;;;;;;;;;;;;;5109893;28;19961;-65
2024/03/30 00:17:39;;;;;;;;;;;;;;;;;;5112983;28;19933;-62
2024/03/30 00:20:04;;;;;;;;;;;;;;;;;;5113049;28;20249;-65
2024/03/30 00:22:29;;;;;;;;;;;;;;;;;;5111734;28;19915;-65
2024/03/30 00:24:54;;;;;;;;;;;;;;;;;;5100207;28;19912;-65
2024/03/30 00:27:20;;;;;;;;;;;;;;;;;;5092594;28;19991;-65
2024/03/30 00:29:45;;;;;;;;;;;;;;;;;;5097848;28;20356;-65
2024/03/30 00:32:10;;;;;;;;;;;;;;;;;;5107041;28;19916;-65
2024/03/30 00:34:35;;;;;;;;;;;;;;;;;;5101676;28;19970;-59
2024/03/30 00:37:03;;;;;;;;;;;;;;;;;;5101741;28;20310;-59
2024/03/30 00:39:28;;;;;;;;;;;;;;;;;;5099503;28;19928;-59
2024/03/30 00:41:53;;;;;;;;;;;;;;;;;;5104366;28;19911;-60
2024/03/30 00:44:18;;;;;;;;;;;;;;;;;;5104035;28;20010;-60
2024/03/30 00:46:43;;;;;;;;;;;;;;;;;;5101096;28;19991;-60
2024/03/30 00:49:09;;;;;;;;;;;;;;;;;;5102825;28;20330;-60
2024/03/30 00:51:34;;;;;;;;;;;;;;;;;;5101737;28;20245;-58
2024/03/30 00:53:59;;;;;;;;;;;;;;;;;;5111687;28;19930;-60
2024/03/30 00:56:29;;;;;;;;;;;;;;;;;;5112608;28;20372;-60
2024/03/30 00:58:54;;;;;;;;;;;;;;;;;;5099583;28;19952;-58
2024/03/30 01:01:21;;;;;;;;;;;;;;;;;;5091845;28;19955;-59
2024/03/30 01:03:46;;;;;;;;;;;;;;;;;;5092082;28;19915;-59
2024/03/30 01:06:11;;;;;;;;;;;;;;;;;;5091682;28;19922;-59
2024/03/30 01:08:36;;;;;;;;;;;;;;;;;;5092149;28;20002;-59
2024/03/30 01:11:01;;;;;;;;;;;;;;;;;;5091876;28;19912;-59
2024/03/30 01:13:26;;;;;;;;;;;;;;;;;;5091977;28;19908;-60
2024/03/30 01:15:52;;;;;;;;;;;;;;;;;;5092271;28;19912;-59
2024/03/30 01:18:17;;;;;;;;;;;;;;;;;;5091553;28;19913;-59
2024/03/30 01:20:42;;;;;;;;;;;;;;;;;;5091463;28;19931;-59
2024/03/30 01:23:07;;;;;;;;;;;;;;;;;;5091509;28;19967;-59
2024/03/30 01:25:33;;;;;;;;;;;;;;;;;;5091812;28;19919;-59
2024/03/30 01:27:58;;;;;;;;;;;;;;;;;;5091433;28;19915;-60
2024/03/30 01:30:23;;;;;;;;;;;;;;;;;;5106298;28;19915;-59
2024/03/30 01:32:48;;;;;;;;;;;;;;;;;;5100566;28;19909;-59
2024/03/30 01:35:13;;;;;;;;;;;;;;;;;;5091569;28;19908;-60
2024/03/30 01:37:38;;;;;;;;;;;;;;;;;;5091428;28;19912;-59
2024/03/30 01:40:04;;;;;;;;;;;;;;;;;;5091397;28;19955;-60
2024/03/30 01:42:29;;;;;;;;;;;;;;;;;;5091655;28;20354;-59
2024/03/30 01:44:54;;;;;;;;;;;;;;;;;;5091590;28;19919;-60
2024/03/30 01:47:19;;;;;;;;;;;;;;;;;;5091396;28;20314;-59
2024/03/30 01:49:44;;;;;;;;;;;;;;;;;;5091856;28;19990;-58
2024/03/30 01:52:09;;;;;;;;;;;;;;;;;;5091339;28;19919;-59
2024/03/30 01:54:34;;;;;;;;;;;;;;;;;;5092702;28;19920;-60
2024/03/30 01:57:00;;;;;;;;;;;;;;;;;;5095042;28;19908;-60
2024/03/30 01:59:25;;;;;;;;;;;;;;;;;;5095317;28;20002;-59
2024/03/30 02:01:52;;;;;;;;;;;;;;;;;;5097562;28;20047;-59
2024/03/30 02:04:18;;;;;;;;;;;;;;;;;;5115724;28;19923;-60
2024/03/30 02:06:43;;;;;;;;;;;;;;;;;;5104456;28;19908;-59
2024/03/30 02:09:10;;;;;;;;;;;;;;;;;;5098116;28;20272;-59
2024/03/30 02:11:35;;;;;;;;;;;;;;;;;;5095145;28;19919;-61
2024/03/30 02:14:00;;;;;;;;;;;;;;;;;;5095020;28;19908;-60
2024/03/30 02:16:28;;;;;;;;;;;;;;;;;;5110685;28;19998;-60
2024/03/30 02:18:53;;;;;;;;;;;;;;;;;;5111630;28;20217;-59
2024/03/30 02:21:19;;;;;;;;;;;;;;;;;;5095051;28;20385;-59
2024/03/30 02:23:44;;;;;;;;;;;;;;;;;;5105777;28;20318;-59
2024/03/30 02:26:09;;;;;;;;;;;;;;;;;;5113819;28;20300;-60
2024/03/30 02:28:34;;;;;;;;;;;;;;;;;;5094769;28;20332;-60
2024/03/30 02:30:59;;;;;;;;;;;;;;;;;;5094951;28;20253;-59
2024/03/30 02:33:24;;;;;;;;;;;;;;;;;;5094628;28;19961;-60
2024/03/30 02:35:49;;;;;;;;;;;;;;;;;;5094678;28;19957;-59
2024/03/30 02:38:14;;;;;;;;;;;;;;;;;;5094499;28;20353;-59
2024/03/30 02:40:39;;;;;;;;;;;;;;;;;;5097368;28;19998;-59
2024/03/30 02:43:06;;;;;;;;;;;;;;;;;;5100229;28;19912;-59
2024/03/30 02:45:31;;;;;;;;;;;;;;;;;;5114950;28;19952;-60
2024/03/30 02:47:56;;;;;;;;;;;;;;;;;;5114761;28;20002;-59
2024/03/30 02:50:21;;;;;;;;;;;;;;;;;;5113790;28;19911;-59
2024/03/30 02:52:46;;;;;;;;;;;;;;;;;;5114668;28;19915;-66
2024/03/30 02:55:11;;;;;;;;;;;;;;;;;;5114679;28;19908;-65
2024/03/30 02:57:36;;;;;;;;;;;;;;;;;;5104239;28;19932;-66
2024/03/30 03:00:02;;;;;;;;;;;;;;;;;;5094325;28;19951;-66
2024/03/30 03:02:27;;;;;;;;;;;;;;;;;;5094583;28;19908;-66
2024/03/30 03:04:52;;;;;;;;;;;;;;;;;;5094310;28;20007;-66
2024/03/30 03:07:17;;;;;;;;;;;;;;;;;;5094199;28;20283;-66
2024/03/30 03:09:43;;;;;;;;;;;;;;;;;;5094056;28;19912;-65
2024/03/30 03:12:08;;;;;;;;;;;;;;;;;;5094043;28;19961;-66
2024/03/30 03:14:33;;;;;;;;;;;;;;;;;;5094597;28;19981;-66
2024/03/30 03:16:58;;;;;;;;;;;;;;;;;;5094106;28;19916;-66
2024/03/30 03:19:23;;;;;;;;;;;;;;;;;;5094032;28;19915;-66
2024/03/30 03:21:48;;;;;;;;;;;;;;;;;;5093927;28;19916;-65
2024/03/30 03:24:13;;;;;;;;;;;;;;;;;;5093637;28;19961;-65
2024/03/30 03:26:38;;;;;;;;;;;;;;;;;;5094075;28;20001;-66
2024/03/30 03:29:03;;;;;;;;;;;;;;;;;;5093910;28;19967;-66
2024/03/30 03:31:29;;;;;;;;;;;;;;;;;;5102815;28;19915;-66
2024/03/30 03:33:54;;;;;;;;;;;;;;;;;;5114487;28;19976;-66
2024/03/30 03:36:19;;;;;;;;;;;;;;;;;;5114232;28;19934;-66
2024/03/30 03:38:44;;;;;;;;;;;;;;;;;;5102749;28;19948;-65
2024/03/30 03:41:09;;;;;;;;;;;;;;;;;;5093304;28;19930;-65
2024/03/30 03:43:36;;;;;;;;;;;;;;;;;;5093679;28;19968;-66
2024/03/30 03:46:01;;;;;;;;;;;;;;;;;;5093617;28;20352;-66
2024/03/30 03:48:26;;;;;;;;;;;;;;;;;;5101999;28;19953;-66
2024/03/30 03:50:51;;;;;;;;;;;;;;;;;;5113720;28;19908;-65
2024/03/30 03:53:17;;;;;;;;;;;;;;;;;;5113486;28;19911;-65
2024/03/30 03:55:42;;;;;;;;;;;;;;;;;;5112643;28;19912;-66
2024/03/30 03:58:07;;;;;;;;;;;;;;;;;;5113602;28;19962;-66
2024/03/30 04:00:32;;;;;;;;;;;;;;;;;;5113691;28;19908;-66
2024/03/30 04:02:57;;;;;;;;;;;;;;;;;;5113659;28;19912;-59
2024/03/30 04:05:22;;;;;;;;;;;;;;;;;;5107448;28;19915;-58
2024/03/30 04:07:47;;;;;;;;;;;;;;;;;;5093104;28;20007;-59
2024/03/30 04:10:15;;;;;;;;;;;;;;;;;;5095838;28;19908;-59
2024/03/30 04:12:40;;;;;;;;;;;;;;;;;;5092848;28;20348;-60
2024/03/30 04:15:05;;;;;;;;;;;;;;;;;;5092697;28;19995;-59
2024/03/30 04:17:30;;;;;;;;;;;;;;;;;;5092468;28;19996;-59
2024/03/30 04:19:55;;;;;;;;;;;;;;;;;;5096730;28;20002;-59
2024/03/30 04:22:21;;;;;;;;;;;;;;;;;;5105017;28;19908;-59
2024/03/30 04:24:46;;;;;;;;;;;;;;;;;;5092508;28;19916;-60
2024/03/30 04:27:11;;;;;;;;;;;;;;;;;;5101365;28;19912;-60
2024/03/30 04:29:36;;;;;;;;;;;;;;;;;;5092643;28;19912;-59
2024/03/30 04:32:01;;;;;;;;;;;;;;;;;;5092675;28;19915;-60
2024/03/30 04:34:26;;;;;;;;;;;;;;;;;;5092358;28;19919;-60
2024/03/30 04:36:51;;;;;;;;;;;;;;;;;;5092552;28;19954;-60
2024/03/30 04:39:16;;;;;;;;;;;;;;;;;;5099395;28;20441;-60
2024/03/30 04:41:42;;;;;;;;;;;;;;;;;;5094587;28;19916;-59
2024/03/30 04:44:07;;;;;;;;;;;;;;;;;;5092961;28;20369;-59
2024/03/30 04:46:32;;;;;;;;;;;;;;;;;;5109884;28;19950;-59
2024/03/30 04:48:57;;;;;;;;;;;;;;;;;;5112443;28;19912;-59
2024/03/30 04:51:22;;;;;;;;;;;;;;;;;;5112747;28;19911;-59
2024/03/30 04:53:47;;;;;;;;;;;;;;;;;;5112608;28;19912;-59
2024/03/30 04:56:12;;;;;;;;;;;;;;;;;;5105578;28;19952;-59
2024/03/30 04:58:37;;;;;;;;;;;;;;;;;;5092187;28;20371;-59
2024/03/30 05:01:03;;;;;;;;;;;;;;;;;;5091773;28;19908;-60
2024/03/30 05:03:28;;;;;;;;;;;;;;;;;;5091798;28;19916;-59
2024/03/30 05:05:53;;;;;;;;;;;;;;;;;;5091856;28;19912;-59
2024/03/30 05:08:18;;;;;;;;;;;;;;;;;;5091797;28;19908;-59
2024/03/30 05:10:43;;;;;;;;;;;;;;;;;;5098558;28;19912;-59
2024/03/30 05:13:08;;;;;;;;;;;;;;;;;;5106346;28;20429;-66
2024/03/30 05:15:33;;;;;;;;;;;;;;;;;;5091691;28;20368;-66
2024/03/30 05:17:59;;;;;;;;;;;;;;;;;;5098585;28;19916;-65
2024/03/30 05:23:08;;;;;;;;;;;;;;;;;;5105322;28;19947;-66
2024/03/30 05:25:33;;;;;;;;;;;;;;;;;;5091795;28;19939;-66
2024/03/30 05:27:58;;;;;;;;;;;;;;;;;;5091744;28;20348;-65
2024/03/30 05:30:23;;;;;;;;;;;;;;;;;;5099826;28;19911;-65
2024/03/30 05:32:48;;;;;;;;;;;;;;;;;;5111764;28;19908;-65
2024/03/30 05:35:13;;;;;;;;;;;;;;;;;;5111721;28;19990;-65
2024/03/30 05:37:38;;;;;;;;;;;;;;;;;;5111736;28;19914;-66
2024/03/30 05:40:04;;;;;;;;;;;;;;;;;;5094168;28;20012;-65
2024/03/30 05:42:29;;;;;;;;;;;;;;;;;;5091740;28;19912;-66
2024/03/30 05:44:54;;;;;;;;;;;;;;;;;;5091695;28;19912;-65
2024/03/30 05:47:19;;;;;;;;;;;;;;;;;;5099013;28;19990;-66
2024/03/30 05:49:44;;;;;;;;;;;;;;;;;;5111770;28;19908;-65
2024/03/30 05:52:09;;;;;;;;;;;;;;;;;;5111524;28;19907;-66
2024/03/30 05:54:34;;;;;;;;;;;;;;;;;;5111609;28;20002;-65
2024/03/30 05:56:59;;;;;;;;;;;;;;;;;;5111677;28;19912;-65
2024/03/30 05:59:25;;;;;;;;;;;;;;;;;;5110895;28;19908;-65
2024/03/30 06:01:50;;;;;;;;;;;;;;;;;;5093726;28;19912;-66
2024/03/30 06:04:15;;;;;;;;;;;;;;;;;;5097827;28;20006;-66
2024/03/30 06:06:40;;;;;;;;;;;;;;;;;;5108119;28;19912;-66
2024/03/30 06:09:05;;;;;;;;;;;;;;;;;;5111761;28;19912;-66
2024/03/30 06:11:30;;;;;;;;;;;;;;;;;;5111378;28;19919;-66
2024/03/30 06:13:56;;;;;;;;;;;;;;;;;;5106553;28;19915;-66
2024/03/30 06:16:22;;;;;;;;;;;;;;;;;;5111234;28;20040;-66
2024/03/30 06:18:47;;;;;;;;;;;;;;;;;;5111276;28;19911;-65
2024/03/30 06:21:12;;;;;;;;;;;;;;;;;;5092376;28;20003;-66
2024/03/30 06:23:37;;;;;;;;;;;;;;;;;;5094975;28;19980;-59
2024/03/30 06:26:02;;;;;;;;;;;;;;;;;;5111309;28;19918;-60
2024/03/30 06:28:28;;;;;;;;;;;;;;;;;;5091353;28;20320;-59
2024/03/30 06:30:53;;;;;;;;;;;;;;;;;;5090956;28;20011;-59
2024/03/30 06:33:18;;;;;;;;;;;;;;;;;;5090893;28;19908;-60
2024/03/30 06:35:43;;;;;;;;;;;;;;;;;;5103215;28;19907;-59
2024/03/30 06:38:08;;;;;;;;;;;;;;;;;;5101652;28;19918;-59
2024/03/30 06:46:01;;;;;;;;;;;;;;;;;;5113726;28;20385;-59
2024/03/30 06:48:26;;;;;;;;;;;;;;;;;;5114837;28;19916;-59
2024/03/30 06:50:51;;;;;;;;;;;;;;;;;;5114850;28;19911;-59
2024/03/30 06:53:16;;;;;;;;;;;;;;;;;;5114543;28;19930;-59
2024/03/30 06:55:41;;;;;;;;;;;;;;;;;;5103721;28;19915;-60
2024/03/30 06:58:07;;;;;;;;;;;;;;;;;;5094157;28;19920;-59
2024/03/30 07:00:32;;;;;;;;;;;;;;;;;;5094513;28;19934;-61
2024/03/30 07:02:57;;;;;;;;;;;;;;;;;;5094410;28;19912;-59
2024/03/30 07:05:22;;;;;;;;;;;;;;;;;;5094276;28;19974;-59
2024/03/30 07:07:47;;;;;;;;;;;;;;;;;;5094288;28;19919;-59
2024/03/30 07:10:12;;;;;;;;;;;;;;;;;;5094270;28;19915;-60
2024/03/30 07:12:38;;;;;;;;;;;;;;;;;;5094886;28;19919;-59
2024/03/30 07:15:03;;;;;;;;;;;;;;;;;;5094276;28;19914;-59
2024/03/30 07:17:28;;;;;;;;;;;;;;;;;;5093841;28;20261;-59
2024/03/30 07:19:53;;;;;;;;;;;;;;;;;;5094155;28;20253;-60
2024/03/30 07:22:18;;;;;;;;;;;;;;;;;;5096762;28;19916;-59
2024/03/30 07:24:43;;;;;;;;;;;;;;;;;;5100773;28;19922;-60
2024/03/30 07:27:08;;;;;;;;;;;;;;;;;;5101449;28;19988;-60
2024/03/30 07:29:34;;;;;;;;;;;;;;;;;;5098607;28;19957;-59
2024/03/30 07:32:00;;;;;;;;;;;;;;;;;;5093639;28;19913;-60
2024/03/30 07:34:25;;;;;;;;;;;;;;;;;;5100635;28;19915;-65
2024/03/30 07:36:51;;;;;;;;;;;;;;;;;;5110423;28;19922;-65
2024/03/30 07:39:16;;;;;;;;;;;;;;;;;;5108755;28;19943;-65
2024/03/30 07:41:41;;;;;;;;;;;;;;;;;;5095356;28;20273;-65
2024/03/30 07:44:06;;;;;;;;;;;;;;;;;;5109036;28;19919;-66
2024/03/30 07:46:31;;;;;;;;;;;;;;;;;;5109504;28;19912;-66
2024/03/30 07:48:56;;;;;;;;;;;;;;;;;;5112520;28;19912;-66
2024/03/30 07:51:21;;;;;;;;;;;;;;;;;;5098430;28;20285;-66
2024/03/30 07:53:47;;;;;;;;;;;;;;;;;;5107235;28;19916;-66
2024/03/30 07:56:12;;;;;;;;;;;;;;;;;;5112975;28;20371;-66
2024/03/30 07:58:37;;;;;;;;;;;;;;;;;;5105667;28;20390;-66
2024/03/30 08:01:02;;;;;;;;;;;;;;;;;;5108212;28;19912;-66
2024/03/30 08:03:27;;;;;;;;;;;;;;;;;;5109070;28;19912;-66
2024/03/30 08:05:52;;;;;;;;;;;;;;;;;;5113117;28;19908;-66
2024/03/30 08:08:17;;;;;;;;;;;;;;;;;;5093284;28;19912;-66
2024/03/30 08:10:42;;;;;;;;;;;;;;;;;;5097613;28;19959;-66
2024/03/30 08:13:08;;;;;;;;;;;;;;;;;;5105151;28;19911;-64
2024/03/30 08:15:33;;;;;;;;;;;;;;;;;;5094650;28;19908;-66
2024/03/30 08:17:58;;;;;;;;;;;;;;;;;;5091921;28;19912;-66
2024/03/30 08:20:23;;;;;;;;;;;;;;;;;;5096154;28;19912;-66
2024/03/30 08:22:49;;;;;;;;;;;;;;;;;;5112090;28;19915;-66
2024/03/30 08:25:14;;;;;;;;;;;;;;;;;;5101789;28;20016;-66
2024/03/30 08:27:39;;;;;;;;;;;;;;;;;;5102480;28;19919;-66
2024/03/30 08:30:05;;;;;;;;;;;;;;;;;;5101163;28;19912;-66
2024/03/30 08:32:30;;;;;;;;;;;;;;;;;;5099158;28;19957;-65
2024/03/30 08:34:55;;;;;;;;;;;;;;;;;;5093823;28;19918;-65
2024/03/30 08:37:20;;;;;;;;;;;;;;;;;;5092461;28;20020;-66
2024/03/30 08:39:46;;;;;;;;;;;;;;;;;;5084947;28;19920;-66
2024/03/30 08:42:11;;;;;;;;;;;;;;;;;;5074186;28;19982;-65
2024/03/30 08:44:36;;;;;;;;;;;;;;;;;;5080786;28;19923;-60
2024/03/30 08:47:02;;;;;;;;;;;;;;;;;;5083029;28;19955;-59
2024/03/30 08:49:27;;;;;;;;;;;;;;;;;;5090387;28;19994;-60
2024/03/30 08:51:52;;;;;;;;;;;;;;;;;;5075880;28;19912;-60
2024/03/30 08:54:17;;;;;;;;;;;;;;;;;;5084660;28;19913;-60
2024/03/30 08:56:43;;;;;;;;;;;;;;;;;;5084824;28;20007;-60
2024/03/30 08:59:08;;;;;;;;;;;;;;;;;;5082737;28;19913;-59
2024/03/30 09:01:33;;;;;;;;;;;;;;;;;;5081773;28;19920;-59
2024/03/30 09:03:58;;;;;;;;;;;;;;;;;;5083249;28;21341;-59
2024/03/30 09:06:23;;;;;;;;;;;;;;;;;;5077342;28;20021;-60
2024/03/30 09:08:48;;;;;;;;;;;;;;;;;;5087598;28;19919;-60
2024/03/30 09:11:14;;;;;;;;;;;;;;;;;;5086651;28;19965;-60
2024/03/30 09:13:39;;;;;;;;;;;;;;;;;;5071689;28;20128;-59
2024/03/30 09:16:04;;;;;;;;;;;;;;;;;;5073685;28;19919;-60
2024/03/30 09:18:29;;;;;;;;;;;;;;;;;;5071588;28;20110;-60
2024/03/30 09:20:55;;;;;;;;;;;;;;;;;;5072429;28;19920;-59
2024/03/30 09:23:20;;;;;;;;;;;;;;;;;;5091239;28;19908;-60
2024/03/30 09:25:45;;;;;;;;;;;;;;;;;;5090873;28;19913;-59
2024/03/30 09:28:10;;;;;;;;;;;;;;;;;;5074114;28;19909;-60
2024/03/30 09:30:35;;;;;;;;;;;;;;;;;;5071155;28;19913;-60
2024/03/30 09:33:01;;;;;;;;;;;;;;;;;;5072253;28;19919;-60
2024/03/30 09:35:26;;;;;;;;;;;;;;;;;;5084737;28;19969;-59
2024/03/30 09:37:51;;;;;;;;;;;;;;;;;;5088711;28;19916;-60
2024/03/30 09:40:16;;;;;;;;;;;;;;;;;;5092010;28;20362;-60
2024/03/30 09:42:42;;;;;;;;;;;;;;;;;;5111507;28;20441;-60
2024/03/30 09:45:07;;;;;;;;;;;;;;;;;;5100524;28;19916;-60
2024/03/30 09:47:32;;;;;;;;;;;;;;;;;;5092048;28;19912;-59
2024/03/30 09:49:58;;;;;;;;;;;;;;;;;;5099894;28;19915;-60
2024/03/30 09:52:23;;;;;;;;;;;;;;;;;;5111967;28;20390;-61
2024/03/30 09:54:48;;;;;;;;;;;;;;;;;;5103485;28;19946;-59
2024/03/30 09:57:13;;;;;;;;;;;;;;;;;;5098621;28;20284;-60
2024/03/30 09:59:39;;;;;;;;;;;;;;;;;;5100145;28;20050;-60
2024/03/30 10:02:04;;;;;;;;;;;;;;;;;;5099441;28;19963;-60
2024/03/30 10:04:29;;;;;;;;;;;;;;;;;;5103151;28;19912;-58
2024/03/30 10:06:55;;;;;;;;;;;;;;;;;;5099864;28;19916;-58
2024/03/30 10:09:20;;;;;;;;;;;;;;;;;;5092211;28;19908;-57
2024/03/30 10:11:45;;;;;;;;;;;;;;;;;;5102478;28;19965;-58
2024/03/30 10:14:10;;;;;;;;;;;;;;;;;;5092985;28;19916;-58
2024/03/30 10:16:35;;;;;;;;;;;;;;;;;;5092350;28;19936;-59
2024/03/30 10:19:00;;;;;;;;;;;;;;;;;;5097310;28;19970;-58
2024/03/30 10:21:25;;;;;;;;;;;;;;;;;;5098331;28;19989;-58
2024/03/30 10:23:51;;;;;;;;;;;;;;;;;;5104241;28;19969;-58
2024/03/30 10:26:19;;;;;;;;;;;;;;;;;;5111186;28;19926;-58
2024/03/30 10:28:44;;;;;;;;;;;;;;;;;;5109276;28;19998;-58
2024/03/30 10:31:09;;;;;;;;;;;;;;;;;;5115360;28;19954;-58
2024/03/30 10:33:34;;;;;;;;;;;;;;;;;;5105673;28;20241;-57
2024/03/30 10:35:59;;;;;;;;;;;;;;;;;;5098644;28;19916;-58
2024/03/30 10:38:24;;;;;;;;;;;;;;;;;;5102792;28;20361;-58
2024/03/30 10:40:49;;;;;;;;;;;;;;;;;;5103392;28;19928;-58
2024/03/30 10:43:14;;;;;;;;;;;;;;;;;;5099962;28;19924;-58
2024/03/30 10:45:40;;;;;;;;;;;;;;;;;;5099127;28;19999;-58
2024/03/30 10:48:05;;;;;;;;;;;;;;;;;;5097519;28;19912;-60
2024/03/30 10:50:30;;;;;;;;;;;;;;;;;;5105459;28;20355;-60
2024/03/30 10:52:55;;;;;;;;;;;;;;;;;;5114682;28;20368;-60
2024/03/30 10:55:20;;;;;;;;;;;;;;;;;;5113056;28;19916;-61
2024/03/30 10:57:46;;;;;;;;;;;;;;;;;;5114788;28;20672;-60
2024/03/30 11:00:11;;;;;;;;;;;;;;;;;;5110609;28;20287;-60
2024/03/30 11:02:36;;;;;;;;;;;;;;;;;;5114588;28;19958;-60
2024/03/30 11:05:01;;;;;;;;;;;;;;;;;;5108803;28;19915;-68
2024/03/30 11:07:26;;;;;;;;;;;;;;;;;;5114404;28;19908;-69
2024/03/30 11:09:51;;;;;;;;;;;;;;;;;;5111602;28;19926;-68
2024/03/30 11:12:16;;;;;;;;;;;;;;;;;;5106423;28;20002;-68
2024/03/30 11:14:41;;;;;;;;;;;;;;;;;;5096539;28;19912;-68
2024/03/30 11:17:07;;;;;;;;;;;;;;;;;;5113471;28;19916;-68
2024/03/30 11:19:32;;;;;;;;;;;;;;;;;;5109161;28;20539;-69
2024/03/30 11:21:57;;;;;;;;;;;;;;;;;;5093346;28;19954;-69
2024/03/30 11:24:22;;;;;;;;;;;;;;;;;;5093582;28;19912;-69
2024/03/30 11:26:47;;;;;;;;;;;;;;;;;;5098407;28;19923;-69
2024/03/30 11:29:12;;;;;;;;;;;;;;;;;;5113655;28;19964;-68
2024/03/30 11:31:37;;;;;;;;;;;;;;;;;;5107002;28;19959;-68
2024/03/30 11:34:04;;;;;;;;;;;;;;;;;;5096489;28;19923;-68
2024/03/30 11:36:29;;;;;;;;;;;;;;;;;;5106624;28;19919;-69
2024/03/30 11:38:54;;;;;;;;;;;;;;;;;;5104763;28;19912;-68
2024/03/30 11:41:19;;;;;;;;;;;;;;;;;;5112902;28;20315;-69
2024/03/30 11:43:44;;;;;;;;;;;;;;;;;;5103912;28;20007;-68
2024/03/30 11:46:09;;;;;;;;;;;;;;;;;;5113948;28;19947;-67
2024/03/30 11:48:35;;;;;;;;;;;;;;;;;;5111916;28;20320;-68
2024/03/30 11:51:00;;;;;;;;;;;;;;;;;;5105445;28;19912;-69
2024/03/30 11:53:25;;;;;;;;;;;;;;;;;;5099961;28;19911;-68
2024/03/30 11:55:51;;;;;;;;;;;;;;;;;;5102384;28;20383;-68
2024/03/30 11:58:16;;;;;;;;;;;;;;;;;;5092813;28;19923;-67
2024/03/30 12:00:41;;;;;;;;;;;;;;;;;;5093281;28;19991;-68
2024/03/30 12:03:06;;;;;;;;;;;;;;;;;;5102199;28;19920;-69
2024/03/30 12:05:31;;;;;;;;;;;;;;;;;;5110516;28;19911;-68
2024/03/30 12:07:57;;;;;;;;;;;;;;;;;;5095512;28;19959;-68
2024/03/30 12:10:22;;;;;;;;;;;;;;;;;;5113423;28;19908;-68
2024/03/30 12:12:48;;;;;;;;;;;;;;;;;;5093803;28;20010;-69
2024/03/30 12:15:13;;;;;;;;;;;;;;;;;;5093978;28;19908;-69
2024/03/30 12:17:38;;;;;;;;;;;;;;;;;;5092488;28;20003;-67
2024/03/30 12:20:03;;;;;;;;;;;;;;;;;;5094847;28;20283;-67
2024/03/30 12:22:29;;;;;;;;;;;;;;;;;;5099972;28;20356;-68
2024/03/30 12:24:54;;;;;;;;;;;;;;;;;;5092212;28;19920;-68
2024/03/30 12:27:19;;;;;;;;;;;;;;;;;;5095098;28;19939;-68
2024/03/30 12:29:44;;;;;;;;;;;;;;;;;;5093320;28;19912;-68
2024/03/30 12:32:09;;;;;;;;;;;;;;;;;;5112825;28;20336;-68
2024/03/30 12:34:34;;;;;;;;;;;;;;;;;;5112103;28;19919;-68
2024/03/30 12:37:00;;;;;;;;;;;;;;;;;;5106796;28;19965;-69
2024/03/30 12:39:25;;;;;;;;;;;;;;;;;;5099275;28;19977;-69
2024/03/30 12:41:50;;;;;;;;;;;;;;;;;;5110240;28;20379;-68
2024/03/30 12:44:15;;;;;;;;;;;;;;;;;;5108387;28;19963;-68
2024/03/30 12:46:40;;;;;;;;;;;;;;;;;;5094126;28;19920;-67
2024/03/30 12:49:05;;;;;;;;;;;;;;;;;;5094168;28;19931;-68
2024/03/30 12:51:30;;;;;;;;;;;;;;;;;;5111777;28;19960;-66
2024/03/30 12:53:55;;;;;;;;;;;;;;;;;;5106610;28;20019;-68
2024/03/30 12:56:20;;;;;;;;;;;;;;;;;;5110142;28;19912;-68
2024/03/30 12:58:46;;;;;;;;;;;;;;;;;;5111481;28;19918;-68
2024/03/30 13:01:11;;;;;;;;;;;;;;;;;;5111953;28;20367;-69
2024/03/30 13:03:36;;;;;;;;;;;;;;;;;;5112415;28;20412;-68
2024/03/30 13:06:01;;;;;;;;;;;;;;;;;;5106637;28;20236;-68
2024/03/30 13:08:26;;;;;;;;;;;;;;;;;;5105905;28;19916;-69
2024/03/30 13:10:52;;;;;;;;;;;;;;;;;;5111367;28;20285;-68
2024/03/30 13:13:17;;;;;;;;;;;;;;;;;;5108761;28;19951;-68
2024/03/30 13:15:42;;;;;;;;;;;;;;;;;;5091618;28;19990;-68
2024/03/30 13:18:07;;;;;;;;;;;;;;;;;;5108800;28;20417;-69
2024/03/30 13:20:32;;;;;;;;;;;;;;;;;;5100732;28;19915;-68
2024/03/30 13:22:57;;;;;;;;;;;;;;;;;;5090979;28;19974;-69
2024/03/30 13:25:22;;;;;;;;;;;;;;;;;;5092648;28;19961;-59
2024/03/30 13:27:47;;;;;;;;;;;;;;;;;;5105829;28;19998;-60
2024/03/30 13:30:13;;;;;;;;;;;;;;;;;;5110890;28;19923;-60
2024/03/30 13:32:38;;;;;;;;;;;;;;;;;;5112031;28;19931;-60
2024/03/30 13:35:04;;;;;;;;;;;;;;;;;;5110791;28;19920;-60
2024/03/30 13:37:29;;;;;;;;;;;;;;;;;;5109907;28;19916;-60
2024/03/30 13:39:55;;;;;;;;;;;;;;;;;;5090333;28;20015;-61
2024/03/30 13:42:20;;;;;;;;;;;;;;;;;;5075519;28;19923;-59
2024/03/30 13:44:45;;;;;;;;;;;;;;;;;;5077257;28;20292;-60
2024/03/30 13:47:10;;;;;;;;;;;;;;;;;;5079522;28;20292;-60
2024/03/30 13:49:35;;;;;;;;;;;;;;;;;;5089183;28;19923;-60
2024/03/30 13:52:00;;;;;;;;;;;;;;;;;;5079997;28;19919;-59
2024/03/30 13:54:25;;;;;;;;;;;;;;;;;;5076651;28;19919;-59
2024/03/30 13:56:56;;;;;;;;;;;;;;;;;;5077913;28;20365;-60
2024/03/30 13:59:21;;;;;;;;;;;;;;;;;;5074925;28;19923;-59
2024/03/30 14:01:46;;;;;;;;;;;;;;;;;;5074187;28;19999;-59
2024/03/30 14:04:11;;;;;;;;;;;;;;;;;;5091301;28;19920;-59
2024/03/30 14:06:36;;;;;;;;;;;;;;;;;;5094592;28;19908;-61
2024/03/30 14:09:02;;;;;;;;;;;;;;;;;;5082707;28;19913;-60
2024/03/30 14:11:27;;;;;;;;;;;;;;;;;;5080958;28;19913;-59
2024/03/30 14:13:52;;;;;;;;;;;;;;;;;;5087917;28;19912;-60
2024/03/30 14:16:18;;;;;;;;;;;;;;;;;;5089025;28;19912;-62
2024/03/30 14:18:44;;;;;;;;;;;;;;;;;;5086390;28;20292;-60
2024/03/30 14:21:09;;;;;;;;;;;;;;;;;;5090511;28;19995;-60
2024/03/30 14:23:34;;;;;;;;;;;;;;;;;;5083826;28;20003;-59
2024/03/30 14:25:59;;;;;;;;;;;;;;;;;;5086371;28;19908;-61
2024/03/30 14:28:24;;;;;;;;;;;;;;;;;;5074827;28;19913;-59
2024/03/30 14:30:49;;;;;;;;;;;;;;;;;;5074363;28;20296;-60
2024/03/30 14:33:15;;;;;;;;;;;;;;;;;;5074780;28;19916;-60
2024/03/30 14:35:40;;;;;;;;;;;;;;;;;;5089716;28;20583;-60
2024/03/30 14:38:05;;;;;;;;;;;;;;;;;;5093641;28;19916;-59
2024/03/30 14:40:30;;;;;;;;;;;;;;;;;;5099999;28;20379;-61
2024/03/30 14:42:56;;;;;;;;;;;;;;;;;;5096101;28;20356;-60
2024/03/30 14:45:21;;;;;;;;;;;;;;;;;;5102803;28;19963;-60
2024/03/30 14:47:46;;;;;;;;;;;;;;;;;;5106474;28;20003;-60
2024/03/30 14:50:11;;;;;;;;;;;;;;;;;;5105995;28;19953;-59
2024/03/30 14:52:37;;;;;;;;;;;;;;;;;;5105808;28;19919;-59
2024/03/30 14:55:02;;;;;;;;;;;;;;;;;;5105351;28;19934;-60
2024/03/30 14:57:27;;;;;;;;;;;;;;;;;;5095284;28;19951;-60
2024/03/30 14:59:52;;;;;;;;;;;;;;;;;;5094039;28;19919;-60
2024/03/30 15:02:17;;;;;;;;;;;;;;;;;;5092816;28;19953;-60
2024/03/30 15:04:43;;;;;;;;;;;;;;;;;;5094162;28;19916;-60
2024/03/30 15:07:08;;;;;;;;;;;;;;;;;;5094014;28;19908;-60
2024/03/30 15:09:33;;;;;;;;;;;;;;;;;;5108658;28;20356;-59
2024/03/30 15:11:58;;;;;;;;;;;;;;;;;;5108917;28;20284;-60
2024/03/30 15:14:24;;;;;;;;;;;;;;;;;;5093296;28;20249;-61
2024/03/30 15:16:49;;;;;;;;;;;;;;;;;;5114420;28;19955;-60
2024/03/30 15:19:14;;;;;;;;;;;;;;;;;;5105974;28;20653;-60
2024/03/30 15:21:40;;;;;;;;;;;;;;;;;;5093777;28;19973;-61
2024/03/30 15:24:05;;;;;;;;;;;;;;;;;;5104191;28;19918;-60
2024/03/30 15:26:30;;;;;;;;;;;;;;;;;;5105923;28;20061;-61
2024/03/30 15:28:55;;;;;;;;;;;;;;;;;;5107132;28;19960;-60
2024/03/30 15:34:04;;;;;;;;;;;;;;;;;;5110312;28;20501;-60
2024/03/30 15:36:29;;;;;;;;;;;;;;;;;;5106640;28;19919;-60
2024/03/30 15:38:54;;;;;;;;;;;;;;;;;;5113390;28;19922;-60
2024/03/30 15:41:19;;;;;;;;;;;;;;;;;;5100192;28;19978;-60
2024/03/30 15:43:45;;;;;;;;;;;;;;;;;;5097998;28;20307;-60
2024/03/30 15:46:10;;;;;;;;;;;;;;;;;;5100956;28;19953;-67
2024/03/30 15:48:35;;;;;;;;;;;;;;;;;;5093139;28;19948;-68
2024/03/30 15:51:01;;;;;;;;;;;;;;;;;;5095328;28;19923;-68
2024/03/30 15:53:26;;;;;;;;;;;;;;;;;;5093214;28;19912;-67
2024/03/30 15:55:51;;;;;;;;;;;;;;;;;;5093035;28;19908;-68
2024/03/30 15:58:16;;;;;;;;;;;;;;;;;;5101272;28;19982;-68
2024/03/30 16:00:41;;;;;;;;;;;;;;;;;;5093151;28;19919;-68
2024/03/30 16:03:06;;;;;;;;;;;;;;;;;;5108967;28;19922;-68
2024/03/30 16:05:31;;;;;;;;;;;;;;;;;;5093011;28;19916;-68
2024/03/30 16:07:57;;;;;;;;;;;;;;;;;;5108437;28;19920;-68
2024/03/30 16:10:23;;;;;;;;;;;;;;;;;;5113155;28;20488;-68
2024/03/30 16:12:48;;;;;;;;;;;;;;;;;;5111401;28;19947;-67
2024/03/30 16:15:13;;;;;;;;;;;;;;;;;;5104901;28;20337;-68
2024/03/30 16:17:38;;;;;;;;;;;;;;;;;;5099116;28;19930;-68
2024/03/30 16:20:04;;;;;;;;;;;;;;;;;;5109279;28;19912;-68
2024/03/30 16:22:29;;;;;;;;;;;;;;;;;;5093942;28;19927;-67
2024/03/30 16:24:54;;;;;;;;;;;;;;;;;;5112408;28;20030;-68
2024/03/30 16:27:20;;;;;;;;;;;;;;;;;;5102386;28;19930;-67
2024/03/30 16:29:45;;;;;;;;;;;;;;;;;;5093403;28;19919;-68
2024/03/30 16:32:10;;;;;;;;;;;;;;;;;;5092275;28;19912;-68
2024/03/30 16:34:36;;;;;;;;;;;;;;;;;;5111732;28;19919;-67
2024/03/30 16:37:01;;;;;;;;;;;;;;;;;;5105471;28;19912;-68
2024/03/30 16:39:26;;;;;;;;;;;;;;;;;;5109682;28;19969;-68
2024/03/30 16:41:52;;;;;;;;;;;;;;;;;;5093877;28;20390;-68